sensor_id;sensor_type;location;lat;lon;timestamp;temperature;humidity
6662;DHT22;3367;48.714;8.994;2022-08-21T00:01:18;14.80;99.90
6662;DHT22;3367;48.714;8.994;2022-08-21T00:03:45;14.70;99.90
6662;DHT22;3367;48.714;8.994;2022-08-21T00:06:12;14.80;99.90
6662;DHT22;3367;48.714;8.994;2022-08-21T00:08:40;14.70;99.90
6662;DHT22;3367;48.714;8.994;2022-08-21T00:11:07;14.70;99.90
6662;DHT22;3367;48.714;8.994;2022-08-21T00:13:34;14.70;99.90
6662;DHT22;3367;48.714;8.994;2022-08-21T00:16:02;14.70;94.50
6662;DHT22;3367;48.714;8.994;2022-08-21T00:18:29;14.60;99.90
6662;DHT22;3367;48.714;8.994;2022-08-21T00:20:56;14.60;99.90
6662;DHT22;3367;48.714;8.994;2022-08-21T00:23:24;14.60;99.90
6662;DHT22;3367;48.714;8.994;2022-08-21T00:25:52;14.60;99.90
6662;DHT22;3367;48.714;8.994;2022-08-21T00:28:19;14.60;99.90
6662;DHT22;3367;48.714;8.994;2022-08-21T00:30:46;14.60;99.90
6662;DHT22;3367;48.714;8.994;2022-08-21T00:33:13;14.60;99.90
6662;DHT22;3367;48.714;8.994;2022-08-21T00:35:41;14.60;99.90
6662;DHT22;3367;48.714;8.994;2022-08-21T00:38:09;14.60;99.90
6662;DHT22;3367;48.714;8.994;2022-08-21T00:40:38;14.60;99.90
6662;DHT22;3367;48.714;8.994;2022-08-21T00:43:09;14.50;99.90
6662;DHT22;3367;48.714;8.994;2022-08-21T00:45:37;14.50;99.90
6662;DHT22;3367;48.714;8.994;2022-08-21T00:48:04;14.50;99.90
6662;DHT22;3367;48.714;8.994;2022-08-21T00:50:34;14.40;99.90
6662;DHT22;3367;48.714;8.994;2022-08-21T00:53:02;14.40;99.90
6662;DHT22;3367;48.714;8.994;2022-08-21T00:55:30;14.40;99.90
6662;DHT22;3367;48.714;8.994;2022-08-21T00:57:59;14.30;99.90
6662;DHT22;3367;48.714;8.994;2022-08-21T01:00:31;14.20;99.90
6662;DHT22;3367;48.714;8.994;2022-08-21T01:03:00;14.20;99.90
6662;DHT22;3367;48.714;8.994;2022-08-21T01:05:27;14.10;99.90
6662;DHT22;3367;48.714;8.994;2022-08-21T01:07:54;14.20;99.90
6662;DHT22;3367;48.714;8.994;2022-08-21T01:10:22;14.20;99.90
6662;DHT22;3367;48.714;8.994;2022-08-21T01:12:50;14.20;99.90
6662;DHT22;3367;48.714;8.994;2022-08-21T01:15:18;14.20;99.90
6662;DHT22;3367;48.714;8.994;2022-08-21T01:17:47;14.10;99.90
6662;DHT22;3367;48.714;8.994;2022-08-21T01:20:14;14.10;99.90
6662;DHT22;3367;48.714;8.994;2022-08-21T01:22:43;14.10;99.90
6662;DHT22;3367;48.714;8.994;2022-08-21T01:25:12;14.10;99.90
6662;DHT22;3367;48.714;8.994;2022-08-21T01:27:40;14.10;99.90
6662;DHT22;3367;48.714;8.994;2022-08-21T01:30:10;14.10;99.90
6662;DHT22;3367;48.714;8.994;2022-08-21T01:32:37;14.00;99.90
6662;DHT22;3367;48.714;8.994;2022-08-21T01:35:06;14.10;99.90
6662;DHT22;3367;48.714;8.994;2022-08-21T01:37:33;14.10;99.90
6662;DHT22;3367;48.714;8.994;2022-08-21T01:40:02;14.00;99.90
6662;DHT22;3367;48.714;8.994;2022-08-21T01:42:29;14.00;99.90
6662;DHT22;3367;48.714;8.994;2022-08-21T01:44:56;13.90;99.90
6662;DHT22;3367;48.714;8.994;2022-08-21T01:47:23;13.90;99.90
6662;DHT22;3367;48.714;8.994;2022-08-21T01:49:49;13.80;99.90
6662;DHT22;3367;48.714;8.994;2022-08-21T01:52:17;13.80;1.00
6662;DHT22;3367;48.714;8.994;2022-08-21T01:54:44;13.80;1.00
6662;DHT22;3367;48.714;8.994;2022-08-21T01:57:13;13.70;99.90
6662;DHT22;3367;48.714;8.994;2022-08-21T01:59:40;13.70;99.90
6662;DHT22;3367;48.714;8.994;2022-08-21T02:02:07;13.70;1.00
6662;DHT22;3367;48.714;8.994;2022-08-21T02:04:33;13.70;1.00
6662;DHT22;3367;48.714;8.994;2022-08-21T02:07:01;13.60;99.90
6662;DHT22;3367;48.714;8.994;2022-08-21T02:09:28;13.50;1.00
6662;DHT22;3367;48.714;8.994;2022-08-21T02:11:54;13.50;1.00
6662;DHT22;3367;48.714;8.994;2022-08-21T02:14:23;13.50;1.00
6662;DHT22;3367;48.714;8.994;2022-08-21T02:16:50;13.50;1.00
6662;DHT22;3367;48.714;8.994;2022-08-21T02:19:17;13.50;1.00
6662;DHT22;3367;48.714;8.994;2022-08-21T02:21:44;13.50;1.00
6662;DHT22;3367;48.714;8.994;2022-08-21T02:24:11;13.50;1.00
6662;DHT22;3367;48.714;8.994;2022-08-21T02:26:38;13.50;1.00
6662;DHT22;3367;48.714;8.994;2022-08-21T02:29:05;13.60;1.00
6662;DHT22;3367;48.714;8.994;2022-08-21T02:31:33;13.50;1.00
6662;DHT22;3367;48.714;8.994;2022-08-21T02:33:59;13.50;1.00
6662;DHT22;3367;48.714;8.994;2022-08-21T02:36:26;13.50;1.00
6662;DHT22;3367;48.714;8.994;2022-08-21T02:38:53;13.40;1.00
6662;DHT22;3367;48.714;8.994;2022-08-21T02:41:21;13.50;1.00
6662;DHT22;3367;48.714;8.994;2022-08-21T02:43:48;13.40;1.00
6662;DHT22;3367;48.714;8.994;2022-08-21T02:46:17;13.40;1.00
6662;DHT22;3367;48.714;8.994;2022-08-21T02:48:46;13.40;1.00
6662;DHT22;3367;48.714;8.994;2022-08-21T02:51:16;13.30;1.00
6662;DHT22;3367;48.714;8.994;2022-08-21T02:53:44;13.30;1.00
6662;DHT22;3367;48.714;8.994;2022-08-21T02:56:14;13.20;1.00
6662;DHT22;3367;48.714;8.994;2022-08-21T02:58:43;13.20;1.00
6662;DHT22;3367;48.714;8.994;2022-08-21T03:01:10;13.10;1.00
6662;DHT22;3367;48.714;8.994;2022-08-21T03:03:39;13.10;1.00
6662;DHT22;3367;48.714;8.994;2022-08-21T03:06:09;13.00;1.00
6662;DHT22;3367;48.714;8.994;2022-08-21T03:08:37;13.10;1.00
6662;DHT22;3367;48.714;8.994;2022-08-21T03:11:04;13.00;1.00
6662;DHT22;3367;48.714;8.994;2022-08-21T03:13:31;13.00;1.00
6662;DHT22;3367;48.714;8.994;2022-08-21T03:15:59;13.00;1.00
6662;DHT22;3367;48.714;8.994;2022-08-21T03:18:26;13.00;1.00
6662;DHT22;3367;48.714;8.994;2022-08-21T03:20:52;13.00;1.00
6662;DHT22;3367;48.714;8.994;2022-08-21T03:23:20;13.00;1.00
6662;DHT22;3367;48.714;8.994;2022-08-21T03:25:48;12.90;1.00
6662;DHT22;3367;48.714;8.994;2022-08-21T03:28:18;12.80;1.00
6662;DHT22;3367;48.714;8.994;2022-08-21T03:30:47;12.90;1.00
6662;DHT22;3367;48.714;8.994;2022-08-21T03:33:14;12.90;1.00
6662;DHT22;3367;48.714;8.994;2022-08-21T03:35:43;12.90;1.00
6662;DHT22;3367;48.714;8.994;2022-08-21T03:38:11;12.90;1.00
6662;DHT22;3367;48.714;8.994;2022-08-21T03:40:40;12.90;1.00
6662;DHT22;3367;48.714;8.994;2022-08-21T03:43:07;12.90;1.00
6662;DHT22;3367;48.714;8.994;2022-08-21T03:45:35;12.90;1.00
6662;DHT22;3367;48.714;8.994;2022-08-21T03:48:04;12.80;1.00
6662;DHT22;3367;48.714;8.994;2022-08-21T03:50:33;12.90;1.00
6662;DHT22;3367;48.714;8.994;2022-08-21T03:53:00;12.90;1.00
6662;DHT22;3367;48.714;8.994;2022-08-21T03:55:27;13.00;1.00
6662;DHT22;3367;48.714;8.994;2022-08-21T03:57:55;12.80;1.00
6662;DHT22;3367;48.714;8.994;2022-08-21T04:00:22;12.70;1.00
6662;DHT22;3367;48.714;8.994;2022-08-21T04:02:49;12.60;1.00
6662;DHT22;3367;48.714;8.994;2022-08-21T04:05:17;12.50;1.00
6662;DHT22;3367;48.714;8.994;2022-08-21T04:07:53;12.50;1.00
6662;DHT22;3367;48.714;8.994;2022-08-21T04:10:20;12.50;1.00
6662;DHT22;3367;48.714;8.994;2022-08-21T04:12:46;12.50;1.00
6662;DHT22;3367;48.714;8.994;2022-08-21T04:15:15;12.50;1.00
6662;DHT22;3367;48.714;8.994;2022-08-21T04:17:41;12.50;1.00
6662;DHT22;3367;48.714;8.994;2022-08-21T04:20:08;12.50;1.00
6662;DHT22;3367;48.714;8.994;2022-08-21T04:22:35;12.50;1.00
6662;DHT22;3367;48.714;8.994;2022-08-21T04:25:02;12.50;1.00
6662;DHT22;3367;48.714;8.994;2022-08-21T04:27:29;12.60;1.00
6662;DHT22;3367;48.714;8.994;2022-08-21T04:29:56;12.60;1.00
6662;DHT22;3367;48.714;8.994;2022-08-21T04:32:24;12.50;10.60
6662;DHT22;3367;48.714;8.994;2022-08-21T04:34:58;12.50;84.60
6662;DHT22;3367;48.714;8.994;2022-08-21T04:37:25;12.50;99.90
6662;DHT22;3367;48.714;8.994;2022-08-21T04:39:51;12.50;96.10
6662;DHT22;3367;48.714;8.994;2022-08-21T04:42:18;12.40;99.90
6662;DHT22;3367;48.714;8.994;2022-08-21T04:44:47;12.40;99.90
6662;DHT22;3367;48.714;8.994;2022-08-21T04:47:14;12.50;1.00
6662;DHT22;3367;48.714;8.994;2022-08-21T04:49:43;12.50;99.90
6662;DHT22;3367;48.714;8.994;2022-08-21T04:52:10;12.40;99.90
6662;DHT22;3367;48.714;8.994;2022-08-21T04:54:37;12.40;99.90
6662;DHT22;3367;48.714;8.994;2022-08-21T04:57:07;12.40;32.70
6662;DHT22;3367;48.714;8.994;2022-08-21T04:59:39;12.40;99.90
6662;DHT22;3367;48.714;8.994;2022-08-21T05:02:08;12.40;99.90
6662;DHT22;3367;48.714;8.994;2022-08-21T05:04:40;12.50;99.90
6662;DHT22;3367;48.714;8.994;2022-08-21T05:07:12;12.50;99.90
6662;DHT22;3367;48.714;8.994;2022-08-21T05:09:42;12.60;99.90
6662;DHT22;3367;48.714;8.994;2022-08-21T05:12:09;12.60;99.90
6662;DHT22;3367;48.714;8.994;2022-08-21T05:14:36;12.60;99.90
6662;DHT22;3367;48.714;8.994;2022-08-21T05:17:03;12.70;99.90
6662;DHT22;3367;48.714;8.994;2022-08-21T05:19:30;12.80;99.90
6662;DHT22;3367;48.714;8.994;2022-08-21T05:21:57;12.80;99.90
6662;DHT22;3367;48.714;8.994;2022-08-21T05:24:25;12.90;16.60
6662;DHT22;3367;48.714;8.994;2022-08-21T05:26:52;12.90;99.90
6662;DHT22;3367;48.714;8.994;2022-08-21T05:29:19;13.00;76.60
6662;DHT22;3367;48.714;8.994;2022-08-21T05:31:47;12.90;1.00
6662;DHT22;3367;48.714;8.994;2022-08-21T05:34:21;12.90;2.90
6662;DHT22;3367;48.714;8.994;2022-08-21T05:36:48;13.00;99.90
6662;DHT22;3367;48.714;8.994;2022-08-21T05:39:15;13.20;3.90
6662;DHT22;3367;48.714;8.994;2022-08-21T05:41:43;13.40;99.90
6662;DHT22;3367;48.714;8.994;2022-08-21T05:44:10;13.70;1.00
6662;DHT22;3367;48.714;8.994;2022-08-21T05:46:36;14.00;1.00
6662;DHT22;3367;48.714;8.994;2022-08-21T05:49:03;14.40;1.00
6662;DHT22;3367;48.714;8.994;2022-08-21T05:51:30;15.00;99.90
6662;DHT22;3367;48.714;8.994;2022-08-21T05:53:57;15.40;1.00
6662;DHT22;3367;48.714;8.994;2022-08-21T05:56:23;15.60;1.00
6662;DHT22;3367;48.714;8.994;2022-08-21T05:58:51;15.80;1.00
6662;DHT22;3367;48.714;8.994;2022-08-21T06:01:18;16.10;1.00
6662;DHT22;3367;48.714;8.994;2022-08-21T06:03:45;16.60;1.00
6662;DHT22;3367;48.714;8.994;2022-08-21T06:06:12;16.80;1.00
6662;DHT22;3367;48.714;8.994;2022-08-21T06:08:38;17.00;1.00
6662;DHT22;3367;48.714;8.994;2022-08-21T06:11:06;17.20;1.00
6662;DHT22;3367;48.714;8.994;2022-08-21T06:13:33;17.40;1.00
6662;DHT22;3367;48.714;8.994;2022-08-21T06:16:03;17.70;1.00
6662;DHT22;3367;48.714;8.994;2022-08-21T06:18:30;18.10;1.00
6662;DHT22;3367;48.714;8.994;2022-08-21T06:20:57;18.30;1.00
6662;DHT22;3367;48.714;8.994;2022-08-21T06:23:24;18.60;1.00
6662;DHT22;3367;48.714;8.994;2022-08-21T06:25:50;18.70;1.00
6662;DHT22;3367;48.714;8.994;2022-08-21T06:28:17;18.90;1.00
6662;DHT22;3367;48.714;8.994;2022-08-21T06:30:44;18.80;1.00
6662;DHT22;3367;48.714;8.994;2022-08-21T06:33:12;18.60;1.00
6662;DHT22;3367;48.714;8.994;2022-08-21T06:35:38;18.80;1.00
6662;DHT22;3367;48.714;8.994;2022-08-21T06:38:05;18.80;1.00
6662;DHT22;3367;48.714;8.994;2022-08-21T06:40:32;18.90;1.00
6662;DHT22;3367;48.714;8.994;2022-08-21T06:43:06;18.80;1.00
6662;DHT22;3367;48.714;8.994;2022-08-21T06:45:33;19.10;1.00
6662;DHT22;3367;48.714;8.994;2022-08-21T06:48:00;19.50;1.00
6662;DHT22;3367;48.714;8.994;2022-08-21T06:50:29;19.60;1.00
6662;DHT22;3367;48.714;8.994;2022-08-21T06:53:00;20.20;1.00
6662;DHT22;3367;48.714;8.994;2022-08-21T06:55:27;20.30;1.00
6662;DHT22;3367;48.714;8.994;2022-08-21T06:57:54;20.20;1.00
6662;DHT22;3367;48.714;8.994;2022-08-21T07:00:20;20.60;1.00
6662;DHT22;3367;48.714;8.994;2022-08-21T07:02:47;20.90;1.00
6662;DHT22;3367;48.714;8.994;2022-08-21T07:05:15;21.00;1.00
6662;DHT22;3367;48.714;8.994;2022-08-21T07:07:43;21.00;1.00
6662;DHT22;3367;48.714;8.994;2022-08-21T07:10:10;21.20;1.00
6662;DHT22;3367;48.714;8.994;2022-08-21T07:12:37;21.00;1.00
6662;DHT22;3367;48.714;8.994;2022-08-21T07:15:05;20.60;1.00
6662;DHT22;3367;48.714;8.994;2022-08-21T07:17:32;20.60;1.00
6662;DHT22;3367;48.714;8.994;2022-08-21T07:19:58;20.70;1.00
6662;DHT22;3367;48.714;8.994;2022-08-21T07:22:25;20.70;1.00
6662;DHT22;3367;48.714;8.994;2022-08-21T07:24:54;20.50;1.00
6662;DHT22;3367;48.714;8.994;2022-08-21T07:27:21;20.60;1.00
6662;DHT22;3367;48.714;8.994;2022-08-21T07:29:48;21.10;1.00
6662;DHT22;3367;48.714;8.994;2022-08-21T07:32:15;21.60;1.00
6662;DHT22;3367;48.714;8.994;2022-08-21T07:34:41;21.90;1.00
6662;DHT22;3367;48.714;8.994;2022-08-21T07:37:08;21.70;1.00
6662;DHT22;3367;48.714;8.994;2022-08-21T07:39:35;21.90;1.00
6662;DHT22;3367;48.714;8.994;2022-08-21T07:42:03;21.60;1.00
6662;DHT22;3367;48.714;8.994;2022-08-21T07:44:30;22.10;1.00
6662;DHT22;3367;48.714;8.994;2022-08-21T07:46:57;22.30;1.00
6662;DHT22;3367;48.714;8.994;2022-08-21T07:49:23;22.90;1.00
6662;DHT22;3367;48.714;8.994;2022-08-21T07:51:50;23.30;1.00
6662;DHT22;3367;48.714;8.994;2022-08-21T07:54:20;23.50;1.00
6662;DHT22;3367;48.714;8.994;2022-08-21T07:56:55;23.90;1.00
6662;DHT22;3367;48.714;8.994;2022-08-21T07:59:23;23.70;1.00
6662;DHT22;3367;48.714;8.994;2022-08-21T08:01:50;23.80;1.00
6662;DHT22;3367;48.714;8.994;2022-08-21T08:04:17;23.80;1.00
6662;DHT22;3367;48.714;8.994;2022-08-21T08:06:43;23.60;1.00
6662;DHT22;3367;48.714;8.994;2022-08-21T08:09:11;23.60;1.00
6662;DHT22;3367;48.714;8.994;2022-08-21T08:11:39;23.70;1.00
6662;DHT22;3367;48.714;8.994;2022-08-21T08:14:09;23.60;1.00
6662;DHT22;3367;48.714;8.994;2022-08-21T08:16:37;23.40;1.00
6662;DHT22;3367;48.714;8.994;2022-08-21T08:19:04;23.20;1.00
6662;DHT22;3367;48.714;8.994;2022-08-21T08:21:31;23.40;1.00
6662;DHT22;3367;48.714;8.994;2022-08-21T08:23:59;23.50;1.00
6662;DHT22;3367;48.714;8.994;2022-08-21T08:26:26;23.50;1.00
6662;DHT22;3367;48.714;8.994;2022-08-21T08:28:52;23.60;1.00
6662;DHT22;3367;48.714;8.994;2022-08-21T08:31:19;23.60;1.00
6662;DHT22;3367;48.714;8.994;2022-08-21T08:33:48;23.70;1.00
6662;DHT22;3367;48.714;8.994;2022-08-21T08:36:16;23.90;1.00
6662;DHT22;3367;48.714;8.994;2022-08-21T08:38:44;24.00;1.00
6662;DHT22;3367;48.714;8.994;2022-08-21T08:41:14;24.00;1.00
6662;DHT22;3367;48.714;8.994;2022-08-21T08:43:44;23.90;1.00
6662;DHT22;3367;48.714;8.994;2022-08-21T08:46:16;23.80;1.00
6662;DHT22;3367;48.714;8.994;2022-08-21T08:48:49;23.60;1.00
6662;DHT22;3367;48.714;8.994;2022-08-21T08:51:22;23.60;1.00
6662;DHT22;3367;48.714;8.994;2022-08-21T08:53:54;23.60;1.00
6662;DHT22;3367;48.714;8.994;2022-08-21T08:56:29;23.60;1.00
6662;DHT22;3367;48.714;8.994;2022-08-21T08:59:00;23.60;1.00
6662;DHT22;3367;48.714;8.994;2022-08-21T09:01:28;23.60;1.00
6662;DHT22;3367;48.714;8.994;2022-08-21T09:03:56;23.50;1.00
6662;DHT22;3367;48.714;8.994;2022-08-21T09:06:34;23.50;1.00
6662;DHT22;3367;48.714;8.994;2022-08-21T09:09:22;23.60;1.00
6662;DHT22;3367;48.714;8.994;2022-08-21T09:11:57;23.50;1.00
6662;DHT22;3367;48.714;8.994;2022-08-21T09:14:36;23.60;1.00
6662;DHT22;3367;48.714;8.994;2022-08-21T09:17:16;23.30;1.00
6662;DHT22;3367;48.714;8.994;2022-08-21T09:19:57;23.30;1.00
6662;DHT22;3367;48.714;8.994;2022-08-21T09:22:43;23.30;1.00
6662;DHT22;3367;48.714;8.994;2022-08-21T09:25:18;23.40;1.00
6662;DHT22;3367;48.714;8.994;2022-08-21T09:27:46;23.50;1.00
6662;DHT22;3367;48.714;8.994;2022-08-21T09:30:14;23.60;1.00
6662;DHT22;3367;48.714;8.994;2022-08-21T09:32:41;23.80;1.00
6662;DHT22;3367;48.714;8.994;2022-08-21T09:35:12;23.90;1.00
6662;DHT22;3367;48.714;8.994;2022-08-21T09:37:49;24.10;1.00
6662;DHT22;3367;48.714;8.994;2022-08-21T09:40:36;24.20;1.00
6662;DHT22;3367;48.714;8.994;2022-08-21T09:43:05;23.90;1.00
6662;DHT22;3367;48.714;8.994;2022-08-21T09:45:33;23.90;1.00
6662;DHT22;3367;48.714;8.994;2022-08-21T09:48:11;23.90;1.00
6662;DHT22;3367;48.714;8.994;2022-08-21T09:50:40;24.20;1.00
6662;DHT22;3367;48.714;8.994;2022-08-21T09:53:16;24.10;1.00
6662;DHT22;3367;48.714;8.994;2022-08-21T09:55:49;24.00;1.00
6662;DHT22;3367;48.714;8.994;2022-08-21T09:58:36;24.10;1.00
6662;DHT22;3367;48.714;8.994;2022-08-21T10:01:05;23.60;1.00
6662;DHT22;3367;48.714;8.994;2022-08-21T10:03:33;23.60;1.00
6662;DHT22;3367;48.714;8.994;2022-08-21T10:06:04;23.60;1.00
6662;DHT22;3367;48.714;8.994;2022-08-21T10:09:02;23.40;1.00
6662;DHT22;3367;48.714;8.994;2022-08-21T10:11:30;23.40;1.00
6662;DHT22;3367;48.714;8.994;2022-08-21T10:14:05;23.50;1.00
6662;DHT22;3367;48.714;8.994;2022-08-21T10:16:40;23.50;1.00
6662;DHT22;3367;48.714;8.994;2022-08-21T10:19:20;23.70;1.00
6662;DHT22;3367;48.714;8.994;2022-08-21T10:22:00;23.80;1.00
6662;DHT22;3367;48.714;8.994;2022-08-21T10:24:32;23.80;1.00
6662;DHT22;3367;48.714;8.994;2022-08-21T10:27:13;23.70;1.00
6662;DHT22;3367;48.714;8.994;2022-08-21T10:29:47;23.60;1.00
6662;DHT22;3367;48.714;8.994;2022-08-21T10:32:29;23.70;1.00
6662;DHT22;3367;48.714;8.994;2022-08-21T10:35:08;23.60;1.00
6662;DHT22;3367;48.714;8.994;2022-08-21T10:37:48;23.80;1.00
6662;DHT22;3367;48.714;8.994;2022-08-21T10:40:23;23.60;1.00
6662;DHT22;3367;48.714;8.994;2022-08-21T10:43:04;23.80;1.00
6662;DHT22;3367;48.714;8.994;2022-08-21T10:45:42;24.10;1.00
6662;DHT22;3367;48.714;8.994;2022-08-21T10:48:23;24.20;1.00
6662;DHT22;3367;48.714;8.994;2022-08-21T10:50:54;24.00;1.00
6662;DHT22;3367;48.714;8.994;2022-08-21T10:53:54;23.80;1.00
6662;DHT22;3367;48.714;8.994;2022-08-21T10:56:23;23.90;1.00
6662;DHT22;3367;48.714;8.994;2022-08-21T10:59:02;23.90;1.00
6662;DHT22;3367;48.714;8.994;2022-08-21T11:01:33;23.90;1.00
6662;DHT22;3367;48.714;8.994;2022-08-21T11:04:11;23.90;1.00
6662;DHT22;3367;48.714;8.994;2022-08-21T11:06:44;23.90;1.00
6662;DHT22;3367;48.714;8.994;2022-08-21T11:09:16;23.90;1.00
6662;DHT22;3367;48.714;8.994;2022-08-21T11:11:47;24.00;1.00
6662;DHT22;3367;48.714;8.994;2022-08-21T11:14:21;24.10;1.00
6662;DHT22;3367;48.714;8.994;2022-08-21T11:16:56;24.10;1.00
6662;DHT22;3367;48.714;8.994;2022-08-21T11:19:29;24.10;1.00
6662;DHT22;3367;48.714;8.994;2022-08-21T11:22:02;24.30;1.00
6662;DHT22;3367;48.714;8.994;2022-08-21T11:24:40;24.60;1.00
6662;DHT22;3367;48.714;8.994;2022-08-21T11:27:20;24.60;1.00
6662;DHT22;3367;48.714;8.994;2022-08-21T11:29:49;24.50;1.00
6662;DHT22;3367;48.714;8.994;2022-08-21T11:32:51;24.30;1.00
6662;DHT22;3367;48.714;8.994;2022-08-21T11:35:29;24.20;1.00
6662;DHT22;3367;48.714;8.994;2022-08-21T11:38:10;24.30;1.00
6662;DHT22;3367;48.714;8.994;2022-08-21T11:40:54;24.20;1.00
6662;DHT22;3367;48.714;8.994;2022-08-21T11:43:29;24.30;1.00
6662;DHT22;3367;48.714;8.994;2022-08-21T11:46:04;24.40;1.00
6662;DHT22;3367;48.714;8.994;2022-08-21T11:51:24;24.30;1.00
6662;DHT22;3367;48.714;8.994;2022-08-21T11:54:04;24.20;1.00
6662;DHT22;3367;48.714;8.994;2022-08-21T11:56:34;24.30;1.00
6662;DHT22;3367;48.714;8.994;2022-08-21T11:59:07;24.40;1.00
6662;DHT22;3367;48.714;8.994;2022-08-21T12:01:39;24.50;1.00
6662;DHT22;3367;48.714;8.994;2022-08-21T12:04:16;24.30;1.00
6662;DHT22;3367;48.714;8.994;2022-08-21T12:06:45;24.40;1.00
6662;DHT22;3367;48.714;8.994;2022-08-21T12:09:30;24.60;1.00
6662;DHT22;3367;48.714;8.994;2022-08-21T12:12:02;24.80;1.00
6662;DHT22;3367;48.714;8.994;2022-08-21T12:14:37;24.90;1.00
6662;DHT22;3367;48.714;8.994;2022-08-21T12:17:05;24.90;1.00
6662;DHT22;3367;48.714;8.994;2022-08-21T12:19:32;24.80;1.00
6662;DHT22;3367;48.714;8.994;2022-08-21T12:22:09;24.80;1.00
6662;DHT22;3367;48.714;8.994;2022-08-21T12:24:39;24.70;1.00
6662;DHT22;3367;48.714;8.994;2022-08-21T12:27:19;24.70;1.00
6662;DHT22;3367;48.714;8.994;2022-08-21T12:29:52;24.60;1.00
6662;DHT22;3367;48.714;8.994;2022-08-21T12:32:24;24.60;1.00
6662;DHT22;3367;48.714;8.994;2022-08-21T12:34:54;24.50;1.00
6662;DHT22;3367;48.714;8.994;2022-08-21T12:37:30;24.80;1.00
6662;DHT22;3367;48.714;8.994;2022-08-21T12:40:01;24.90;1.00
6662;DHT22;3367;48.714;8.994;2022-08-21T12:42:36;24.80;1.00
6662;DHT22;3367;48.714;8.994;2022-08-21T12:45:10;24.90;1.00
6662;DHT22;3367;48.714;8.994;2022-08-21T12:47:45;24.80;1.00
6662;DHT22;3367;48.714;8.994;2022-08-21T12:50:17;24.90;1.00
6662;DHT22;3367;48.714;8.994;2022-08-21T12:52:54;24.90;1.00
6662;DHT22;3367;48.714;8.994;2022-08-21T12:55:27;24.80;1.00
6662;DHT22;3367;48.714;8.994;2022-08-21T12:57:54;25.00;1.00
6662;DHT22;3367;48.714;8.994;2022-08-21T13:00:22;25.00;1.00
6662;DHT22;3367;48.714;8.994;2022-08-21T13:02:51;25.00;1.00
6662;DHT22;3367;48.714;8.994;2022-08-21T13:05:27;25.00;1.00
6662;DHT22;3367;48.714;8.994;2022-08-21T13:07:55;25.00;1.00
6662;DHT22;3367;48.714;8.994;2022-08-21T13:10:24;25.20;1.00
6662;DHT22;3367;48.714;8.994;2022-08-21T13:12:54;25.10;1.00
6662;DHT22;3367;48.714;8.994;2022-08-21T13:15:25;25.10;1.00
6662;DHT22;3367;48.714;8.994;2022-08-21T13:17:52;25.10;1.00
6662;DHT22;3367;48.714;8.994;2022-08-21T13:20:21;25.20;1.00
6662;DHT22;3367;48.714;8.994;2022-08-21T13:22:49;25.30;1.00
6662;DHT22;3367;48.714;8.994;2022-08-21T13:25:21;25.50;1.00
6662;DHT22;3367;48.714;8.994;2022-08-21T13:27:59;25.50;1.00
6662;DHT22;3367;48.714;8.994;2022-08-21T13:30:26;25.60;1.00
6662;DHT22;3367;48.714;8.994;2022-08-21T13:32:56;25.50;1.00
6662;DHT22;3367;48.714;8.994;2022-08-21T13:35:28;25.60;1.00
6662;DHT22;3367;48.714;8.994;2022-08-21T13:37:58;25.50;1.00
6662;DHT22;3367;48.714;8.994;2022-08-21T13:40:29;25.40;1.00
6662;DHT22;3367;48.714;8.994;2022-08-21T13:42:57;25.30;1.00
6662;DHT22;3367;48.714;8.994;2022-08-21T13:45:30;25.30;1.00
6662;DHT22;3367;48.714;8.994;2022-08-21T13:47:59;25.30;1.00
6662;DHT22;3367;48.714;8.994;2022-08-21T13:50:26;25.30;1.00
6662;DHT22;3367;48.714;8.994;2022-08-21T13:52:57;25.20;1.00
6662;DHT22;3367;48.714;8.994;2022-08-21T13:55:35;25.10;1.00
6662;DHT22;3367;48.714;8.994;2022-08-21T13:58:03;25.10;1.00
6662;DHT22;3367;48.714;8.994;2022-08-21T14:00:32;25.00;1.00
6662;DHT22;3367;48.714;8.994;2022-08-21T14:03:04;25.20;1.00
6662;DHT22;3367;48.714;8.994;2022-08-21T14:05:34;25.30;1.00
6662;DHT22;3367;48.714;8.994;2022-08-21T14:08:05;25.20;1.00
6662;DHT22;3367;48.714;8.994;2022-08-21T14:10:36;25.30;1.00
6662;DHT22;3367;48.714;8.994;2022-08-21T14:13:23;25.40;1.00
6662;DHT22;3367;48.714;8.994;2022-08-21T14:15:56;25.30;1.00
6662;DHT22;3367;48.714;8.994;2022-08-21T14:18:23;25.20;1.00
6662;DHT22;3367;48.714;8.994;2022-08-21T14:20:51;25.10;1.00
6662;DHT22;3367;48.714;8.994;2022-08-21T14:23:24;25.10;1.00
6662;DHT22;3367;48.714;8.994;2022-08-21T14:25:53;25.00;1.00
6662;DHT22;3367;48.714;8.994;2022-08-21T14:28:27;25.00;1.00
6662;DHT22;3367;48.714;8.994;2022-08-21T14:30:55;25.20;1.00
6662;DHT22;3367;48.714;8.994;2022-08-21T14:33:25;25.10;1.00
6662;DHT22;3367;48.714;8.994;2022-08-21T14:35:53;25.10;1.00
6662;DHT22;3367;48.714;8.994;2022-08-21T14:38:23;25.10;1.00
6662;DHT22;3367;48.714;8.994;2022-08-21T14:40:54;25.10;1.00
6662;DHT22;3367;48.714;8.994;2022-08-21T14:43:21;25.20;1.00
6662;DHT22;3367;48.714;8.994;2022-08-21T14:45:47;25.30;1.00
6662;DHT22;3367;48.714;8.994;2022-08-21T14:48:15;25.40;1.00
6662;DHT22;3367;48.714;8.994;2022-08-21T14:50:41;25.30;1.00
6662;DHT22;3367;48.714;8.994;2022-08-21T14:53:08;25.40;1.00
6662;DHT22;3367;48.714;8.994;2022-08-21T14:55:37;25.40;1.00
6662;DHT22;3367;48.714;8.994;2022-08-21T14:58:20;25.50;1.00
6662;DHT22;3367;48.714;8.994;2022-08-21T15:00:47;25.60;1.00
6662;DHT22;3367;48.714;8.994;2022-08-21T15:03:14;25.60;1.00
6662;DHT22;3367;48.714;8.994;2022-08-21T15:05:40;25.70;1.00
6662;DHT22;3367;48.714;8.994;2022-08-21T15:08:07;25.80;1.00
6662;DHT22;3367;48.714;8.994;2022-08-21T15:10:35;25.80;1.00
6662;DHT22;3367;48.714;8.994;2022-08-21T15:13:02;25.80;1.00
6662;DHT22;3367;48.714;8.994;2022-08-21T15:15:34;25.90;1.00
6662;DHT22;3367;48.714;8.994;2022-08-21T15:18:01;25.80;1.00
6662;DHT22;3367;48.714;8.994;2022-08-21T15:20:27;25.80;1.00
6662;DHT22;3367;48.714;8.994;2022-08-21T15:22:54;25.90;1.00
6662;DHT22;3367;48.714;8.994;2022-08-21T15:25:21;25.90;1.00
6662;DHT22;3367;48.714;8.994;2022-08-21T15:27:47;25.90;1.00
6662;DHT22;3367;48.714;8.994;2022-08-21T15:30:14;25.80;1.00
6662;DHT22;3367;48.714;8.994;2022-08-21T15:32:42;25.80;1.00
6662;DHT22;3367;48.714;8.994;2022-08-21T15:35:09;25.80;1.00
6662;DHT22;3367;48.714;8.994;2022-08-21T15:37:36;25.80;1.00
6662;DHT22;3367;48.714;8.994;2022-08-21T15:40:03;25.90;1.00
6662;DHT22;3367;48.714;8.994;2022-08-21T15:42:31;25.90;1.00
6662;DHT22;3367;48.714;8.994;2022-08-21T15:44:58;25.80;1.00
6662;DHT22;3367;48.714;8.994;2022-08-21T15:47:27;25.70;1.00
6662;DHT22;3367;48.714;8.994;2022-08-21T15:49:56;25.60;1.00
6662;DHT22;3367;48.714;8.994;2022-08-21T15:52:23;25.70;1.00
6662;DHT22;3367;48.714;8.994;2022-08-21T15:54:50;25.70;1.00
6662;DHT22;3367;48.714;8.994;2022-08-21T15:57:19;25.70;1.00
6662;DHT22;3367;48.714;8.994;2022-08-21T15:59:49;25.30;1.00
6662;DHT22;3367;48.714;8.994;2022-08-21T16:02:19;25.40;1.00
6662;DHT22;3367;48.714;8.994;2022-08-21T16:04:46;25.40;1.00
6662;DHT22;3367;48.714;8.994;2022-08-21T16:07:14;25.30;1.00
6662;DHT22;3367;48.714;8.994;2022-08-21T16:09:41;25.30;1.00
6662;DHT22;3367;48.714;8.994;2022-08-21T16:12:10;25.30;1.00
6662;DHT22;3367;48.714;8.994;2022-08-21T16:14:37;25.30;1.00
6662;DHT22;3367;48.714;8.994;2022-08-21T16:17:05;25.30;1.00
6662;DHT22;3367;48.714;8.994;2022-08-21T16:19:32;25.30;1.00
6662;DHT22;3367;48.714;8.994;2022-08-21T16:21:59;25.30;1.00
6662;DHT22;3367;48.714;8.994;2022-08-21T16:24:27;25.20;1.00
6662;DHT22;3367;48.714;8.994;2022-08-21T16:26:54;25.20;1.00
6662;DHT22;3367;48.714;8.994;2022-08-21T16:29:21;25.20;1.00
6662;DHT22;3367;48.714;8.994;2022-08-21T16:31:49;25.20;1.00
6662;DHT22;3367;48.714;8.994;2022-08-21T16:34:18;25.20;1.00